sensor_id;sensor_type;location;lat;lon;timestamp;pressure;altitude;pressure_sealevel;temperature;humidity
47811;BME280;33575;52.600;7.318;2024-03-23T00:52:55;100714.46;;;8.06;91.79
47811;BME280;33575;52.600;7.318;2024-03-23T00:55:26;100702.32;;;8.06;91.45
47811;BME280;33575;52.600;7.318;2024-03-23T00:57:56;100703.49;;;8.05;91.48
47811;BME280;33575;52.600;7.318;2024-03-23T01:00:27;100703.64;;;8.04;91.95
47811;BME280;33575;52.600;7.318;2024-03-23T01:02:58;100694.87;;;8.01;91.85
47811;BME280;33575;52.600;7.318;2024-03-23T01:05:28;100689.93;;;7.99;91.34
47811;BME280;33575;52.600;7.318;2024-03-23T01:07:58;100687.89;;;7.95;92.10
47811;BME280;33575;52.600;7.318;2024-03-23T01:10:29;100681.41;;;7.93;91.53
47811;BME280;33575;52.600;7.318;2024-03-23T01:12:59;100677.92;;;7.90;92.36
47811;BME280;33575;52.600;7.318;2024-03-23T01:15:30;100679.66;;;7.88;92.42
47811;BME280;33575;52.600;7.318;2024-03-23T01:18:01;100685.89;;;7.87;92.52
47811;BME280;33575;52.600;7.318;2024-03-23T01:20:31;100695.27;;;7.82;92.46
47811;BME280;33575;52.600;7.318;2024-03-23T01:23:03;100702.45;;;7.75;93.29
47811;BME280;33575;52.600;7.318;2024-03-23T01:25:33;100695.54;;;7.71;93.40
47811;BME280;33575;52.600;7.318;2024-03-23T01:28:03;100690.78;;;7.71;93.37
47811;BME280;33575;52.600;7.318;2024-03-23T01:30:33;100682.89;;;7.68;94.34
47811;BME280;33575;52.600;7.318;2024-03-23T01:33:04;100673.63;;;7.70;94.91
47811;BME280;33575;52.600;7.318;2024-03-23T01:35:34;100669.38;;;7.76;95.35
47811;BME280;33575;52.600;7.318;2024-03-23T01:38:05;100671.41;;;7.79;94.62
47811;BME280;33575;52.600;7.318;2024-03-23T01:40:35;100671.94;;;7.77;94.76
47811;BME280;33575;52.600;7.318;2024-03-23T01:43:07;100668.89;;;7.76;94.14
47811;BME280;33575;52.600;7.318;2024-03-23T01:45:36;100669.67;;;7.75;93.88
47811;BME280;33575;52.600;7.318;2024-03-23T01:48:07;100664.81;;;7.72;93.59
47811;BME280;33575;52.600;7.318;2024-03-23T01:50:37;100664.28;;;7.67;94.40
47811;BME280;33575;52.600;7.318;2024-03-23T01:53:08;100665.11;;;7.66;94.22
47811;BME280;33575;52.600;7.318;2024-03-23T01:55:38;100663.25;;;7.67;94.24
47811;BME280;33575;52.600;7.318;2024-03-23T01:58:09;100661.61;;;7.65;94.44
47811;BME280;33575;52.600;7.318;2024-03-23T02:00:39;100658.07;;;7.62;94.67
47811;BME280;33575;52.600;7.318;2024-03-23T02:05:40;100644.40;;;7.56;94.61
47811;BME280;33575;52.600;7.318;2024-03-23T02:08:11;100638.44;;;7.56;94.17
47811;BME280;33575;52.600;7.318;2024-03-23T02:10:41;100633.83;;;7.53;94.27
47811;BME280;33575;52.600;7.318;2024-03-23T02:13:11;100637.29;;;7.55;94.35
47811;BME280;33575;52.600;7.318;2024-03-23T02:15:42;100639.15;;;7.57;94.16
47811;BME280;33575;52.600;7.318;2024-03-23T02:18:12;100637.00;;;7.57;94.62
47811;BME280;33575;52.600;7.318;2024-03-23T02:20:42;100638.81;;;7.53;94.87
47811;BME280;33575;52.600;7.318;2024-03-23T02:23:13;100634.92;;;7.49;95.19
47811;BME280;33575;52.600;7.318;2024-03-23T02:25:44;100624.64;;;7.51;94.83
47811;BME280;33575;52.600;7.318;2024-03-23T02:28:14;100616.71;;;7.52;94.62
47811;BME280;33575;52.600;7.318;2024-03-23T02:30:45;100615.63;;;7.54;94.55
47811;BME280;33575;52.600;7.318;2024-03-23T02:33:15;100617.78;;;7.55;94.51
47811;BME280;33575;52.600;7.318;2024-03-23T02:35:45;100610.82;;;7.54;94.59
47811;BME280;33575;52.600;7.318;2024-03-23T02:38:15;100617.47;;;7.53;94.06
47811;BME280;33575;52.600;7.318;2024-03-23T02:40:46;100618.57;;;7.50;94.51
47811;BME280;33575;52.600;7.318;2024-03-23T02:43:17;100617.81;;;7.47;94.57
47811;BME280;33575;52.600;7.318;2024-03-23T02:45:47;100622.72;;;7.44;94.58
47811;BME280;33575;52.600;7.318;2024-03-23T02:48:18;100614.73;;;7.41;94.01
47811;BME280;33575;52.600;7.318;2024-03-23T02:50:48;100605.48;;;7.41;94.44
47811;BME280;33575;52.600;7.318;2024-03-23T02:53:19;100598.42;;;7.40;94.29
47811;BME280;33575;52.600;7.318;2024-03-23T02:55:49;100597.77;;;7.41;94.22
47811;BME280;33575;52.600;7.318;2024-03-23T02:58:19;100600.06;;;7.40;94.64
47811;BME280;33575;52.600;7.318;2024-03-23T03:00:50;100598.11;;;7.41;94.54
47811;BME280;33575;52.600;7.318;2024-03-23T03:03:20;100581.07;;;7.39;93.76
47811;BME280;33575;52.600;7.318;2024-03-23T03:05:55;100562.73;;;7.38;93.58
47811;BME280;33575;52.600;7.318;2024-03-23T03:08:20;100572.18;;;7.35;93.96
47811;BME280;33575;52.600;7.318;2024-03-23T03:10:51;100561.88;;;7.33;93.18
47811;BME280;33575;52.600;7.318;2024-03-23T03:13:22;100560.39;;;7.32;93.34
47811;BME280;33575;52.600;7.318;2024-03-23T03:15:52;100559.35;;;7.31;93.01
47811;BME280;33575;52.600;7.318;2024-03-23T03:18:23;100560.69;;;7.26;93.09
47811;BME280;33575;52.600;7.318;2024-03-23T03:20:54;100560.32;;;7.20;93.54
47811;BME280;33575;52.600;7.318;2024-03-23T03:23:23;100559.71;;;7.16;93.64
47811;BME280;33575;52.600;7.318;2024-03-23T03:25:53;100562.30;;;7.16;93.56
47811;BME280;33575;52.600;7.318;2024-03-23T03:28:24;100561.91;;;7.11;93.63
47811;BME280;33575;52.600;7.318;2024-03-23T03:30:55;100564.69;;;7.10;93.63
47811;BME280;33575;52.600;7.318;2024-03-23T03:33:26;100567.93;;;7.05;94.12
47811;BME280;33575;52.600;7.318;2024-03-23T03:35:56;100569.59;;;7.01;94.00
47811;BME280;33575;52.600;7.318;2024-03-23T03:38:26;100575.76;;;7.00;93.74
47811;BME280;33575;52.600;7.318;2024-03-23T03:40:57;100577.37;;;6.98;94.15
47811;BME280;33575;52.600;7.318;2024-03-23T03:43:27;100576.14;;;6.94;93.87
47811;BME280;33575;52.600;7.318;2024-03-23T03:46:00;100572.75;;;6.92;93.59
47811;BME280;33575;52.600;7.318;2024-03-23T03:48:29;100563.87;;;6.88;93.48
47811;BME280;33575;52.600;7.318;2024-03-23T03:50:59;100558.69;;;6.83;93.44
47811;BME280;33575;52.600;7.318;2024-03-23T03:53:30;100554.54;;;6.80;92.97
47811;BME280;33575;52.600;7.318;2024-03-23T03:56:00;100554.93;;;6.78;93.18
47811;BME280;33575;52.600;7.318;2024-03-23T03:58:31;100552.58;;;6.75;93.70
47811;BME280;33575;52.600;7.318;2024-03-23T04:01:02;100552.55;;;6.73;93.34
47811;BME280;33575;52.600;7.318;2024-03-23T04:03:32;100549.88;;;6.66;93.01
47811;BME280;33575;52.600;7.318;2024-03-23T04:06:03;100548.62;;;6.54;93.09
47811;BME280;33575;52.600;7.318;2024-03-23T04:08:33;100546.60;;;6.48;92.68
47811;BME280;33575;52.600;7.318;2024-03-23T04:11:03;100544.55;;;6.44;93.24
47811;BME280;33575;52.600;7.318;2024-03-23T04:13:33;100542.30;;;6.44;93.65
47811;BME280;33575;52.600;7.318;2024-03-23T04:16:05;100542.63;;;6.40;93.81
47811;BME280;33575;52.600;7.318;2024-03-23T04:18:35;100541.65;;;6.38;94.04
47811;BME280;33575;52.600;7.318;2024-03-23T04:21:06;100540.78;;;6.37;93.52
47811;BME280;33575;52.600;7.318;2024-03-23T04:23:36;100540.31;;;6.37;93.26
47811;BME280;33575;52.600;7.318;2024-03-23T04:26:06;100537.97;;;6.35;93.37
47811;BME280;33575;52.600;7.318;2024-03-23T04:28:37;100529.16;;;6.32;93.50
47811;BME280;33575;52.600;7.318;2024-03-23T04:31:08;100527.44;;;6.28;93.44
47811;BME280;33575;52.600;7.318;2024-03-23T04:33:39;100520.24;;;6.23;93.25
47811;BME280;33575;52.600;7.318;2024-03-23T04:36:09;100519.03;;;6.19;93.41
47811;BME280;33575;52.600;7.318;2024-03-23T04:38:40;100521.44;;;6.17;93.65
47811;BME280;33575;52.600;7.318;2024-03-23T04:41:10;100520.83;;;6.16;93.75
47811;BME280;33575;52.600;7.318;2024-03-23T04:43:41;100521.75;;;6.17;93.64
47811;BME280;33575;52.600;7.318;2024-03-23T04:46:11;100522.02;;;6.15;93.21
47811;BME280;33575;52.600;7.318;2024-03-23T04:48:42;100519.94;;;6.13;93.49
47811;BME280;33575;52.600;7.318;2024-03-23T04:51:21;100520.13;;;6.06;93.79
47811;BME280;33575;52.600;7.318;2024-03-23T04:53:43;100519.34;;;6.03;93.80
47811;BME280;33575;52.600;7.318;2024-03-23T04:56:14;100521.13;;;6.04;93.74
47811;BME280;33575;52.600;7.318;2024-03-23T04:58:44;100518.74;;;6.05;92.94
47811;BME280;33575;52.600;7.318;2024-03-23T05:01:15;100515.03;;;6.03;93.05
47811;BME280;33575;52.600;7.318;2024-03-23T05:03:45;100513.96;;;6.03;93.43
47811;BME280;33575;52.600;7.318;2024-03-23T05:06:16;100517.10;;;6.10;100.00
47811;BME280;33575;52.600;7.318;2024-03-23T05:08:46;100515.44;;;6.16;96.88
47811;BME280;33575;52.600;7.318;2024-03-23T05:11:16;100510.19;;;6.11;94.75
47811;BME280;33575;52.600;7.318;2024-03-23T05:13:46;100508.50;;;6.09;94.50
47811;BME280;33575;52.600;7.318;2024-03-23T05:16:17;100509.27;;;6.06;93.36
47811;BME280;33575;52.600;7.318;2024-03-23T05:18:48;100509.20;;;6.00;93.17
47811;BME280;33575;52.600;7.318;2024-03-23T05:21:19;100514.08;;;5.96;92.74
47811;BME280;33575;52.600;7.318;2024-03-23T05:23:49;100516.62;;;5.91;92.89
47811;BME280;33575;52.600;7.318;2024-03-23T05:26:19;100514.11;;;5.86;92.50
47811;BME280;33575;52.600;7.318;2024-03-23T05:28:50;100513.85;;;5.80;92.55
47811;BME280;33575;52.600;7.318;2024-03-23T05:31:24;100514.58;;;5.71;91.88
47811;BME280;33575;52.600;7.318;2024-03-23T05:33:51;100514.67;;;5.70;92.44
47811;BME280;33575;52.600;7.318;2024-03-23T05:36:22;100515.28;;;5.65;92.55
47811;BME280;33575;52.600;7.318;2024-03-23T05:38:52;100515.99;;;5.61;93.21
47811;BME280;33575;52.600;7.318;2024-03-23T05:41:23;100515.28;;;5.59;92.46
47811;BME280;33575;52.600;7.318;2024-03-23T05:43:53;100515.44;;;5.52;92.69
47811;BME280;33575;52.600;7.318;2024-03-23T05:46:24;100514.69;;;5.53;92.99
47811;BME280;33575;52.600;7.318;2024-03-23T05:49:00;100514.40;;;5.50;92.81
47811;BME280;33575;52.600;7.318;2024-03-23T05:51:25;100520.87;;;5.48;93.36
47811;BME280;33575;52.600;7.318;2024-03-23T05:53:56;100521.25;;;5.48;93.84
47811;BME280;33575;52.600;7.318;2024-03-23T05:56:26;100521.19;;;5.49;93.37
47811;BME280;33575;52.600;7.318;2024-03-23T05:58:57;100522.50;;;5.49;93.41
47811;BME280;33575;52.600;7.318;2024-03-23T06:01:28;100518.23;;;5.51;93.32
47811;BME280;33575;52.600;7.318;2024-03-23T06:03:58;100518.27;;;5.53;93.41
47811;BME280;33575;52.600;7.318;2024-03-23T06:06:29;100516.97;;;5.52;93.33
47811;BME280;33575;52.600;7.318;2024-03-23T06:09:00;100516.36;;;5.52;93.46
47811;BME280;33575;52.600;7.318;2024-03-23T06:11:30;100514.62;;;5.50;93.73
47811;BME280;33575;52.600;7.318;2024-03-23T06:14:01;100515.19;;;5.48;94.25
47811;BME280;33575;52.600;7.318;2024-03-23T06:16:32;100513.85;;;5.47;94.29
47811;BME280;33575;52.600;7.318;2024-03-23T06:19:02;100519.49;;;5.47;93.94
47811;BME280;33575;52.600;7.318;2024-03-23T06:21:32;100519.94;;;5.48;93.45
47811;BME280;33575;52.600;7.318;2024-03-23T06:24:03;100521.43;;;5.49;93.66
47811;BME280;33575;52.600;7.318;2024-03-23T06:26:33;100517.42;;;5.49;93.74
47811;BME280;33575;52.600;7.318;2024-03-23T06:29:03;100515.93;;;5.50;93.61
47811;BME280;33575;52.600;7.318;2024-03-23T06:31:34;100517.78;;;5.48;93.73
47811;BME280;33575;52.600;7.318;2024-03-23T06:34:04;100517.89;;;5.47;93.73
47811;BME280;33575;52.600;7.318;2024-03-23T06:36:35;100520.95;;;5.46;93.74
47811;BME280;33575;52.600;7.318;2024-03-23T06:39:05;100520.82;;;5.49;93.29
47811;BME280;33575;52.600;7.318;2024-03-23T06:41:36;100524.66;;;5.52;93.47
47811;BME280;33575;52.600;7.318;2024-03-23T06:44:06;100516.94;;;5.56;93.21
47811;BME280;33575;52.600;7.318;2024-03-23T06:46:37;100519.19;;;5.54;93.92
47811;BME280;33575;52.600;7.318;2024-03-23T06:49:08;100520.37;;;5.55;93.79
47811;BME280;33575;52.600;7.318;2024-03-23T06:51:38;100525.66;;;5.53;93.88
47811;BME280;33575;52.600;7.318;2024-03-23T06:54:09;100524.69;;;5.53;94.33
47811;BME280;33575;52.600;7.318;2024-03-23T06:56:39;100525.52;;;5.53;94.80
47811;BME280;33575;52.600;7.318;2024-03-23T06:59:10;100523.56;;;5.50;94.84
47811;BME280;33575;52.600;7.318;2024-03-23T07:01:40;100520.93;;;5.50;94.90
47811;BME280;33575;52.600;7.318;2024-03-23T07:04:11;100518.04;;;5.52;95.01
47811;BME280;33575;52.600;7.318;2024-03-23T07:06:43;100514.52;;;5.58;94.76
47811;BME280;33575;52.600;7.318;2024-03-23T07:09:12;100515.91;;;5.58;95.12
47811;BME280;33575;52.600;7.318;2024-03-23T07:11:43;100516.95;;;5.62;95.73
47811;BME280;33575;52.600;7.318;2024-03-23T07:14:13;100514.26;;;5.65;96.12
47811;BME280;33575;52.600;7.318;2024-03-23T07:16:44;100512.94;;;5.70;97.09
47811;BME280;33575;52.600;7.318;2024-03-23T07:19:14;100514.80;;;5.75;96.44
47811;BME280;33575;52.600;7.318;2024-03-23T07:21:45;100506.70;;;5.78;96.93
47811;BME280;33575;52.600;7.318;2024-03-23T07:24:16;100509.92;;;5.84;96.63
47811;BME280;33575;52.600;7.318;2024-03-23T07:26:46;100503.57;;;5.92;95.69
47811;BME280;33575;52.600;7.318;2024-03-23T07:29:17;100512.93;;;6.01;95.93
47811;BME280;33575;52.600;7.318;2024-03-23T07:31:47;100510.15;;;6.01;95.86
47811;BME280;33575;52.600;7.318;2024-03-23T07:34:18;100510.20;;;6.08;95.84
47811;BME280;33575;52.600;7.318;2024-03-23T07:36:48;100506.56;;;6.13;96.19
47811;BME280;33575;52.600;7.318;2024-03-23T07:39:18;100505.12;;;6.19;96.08
47811;BME280;33575;52.600;7.318;2024-03-23T07:41:49;100506.50;;;6.24;96.10
47811;BME280;33575;52.600;7.318;2024-03-23T07:44:20;100516.92;;;6.08;98.18
47811;BME280;33575;52.600;7.318;2024-03-23T07:46:50;100515.57;;;6.04;98.90
47811;BME280;33575;52.600;7.318;2024-03-23T07:49:21;100513.79;;;6.17;97.43
47811;BME280;33575;52.600;7.318;2024-03-23T07:51:51;100508.83;;;6.31;95.92
47811;BME280;33575;52.600;7.318;2024-03-23T07:54:22;100505.32;;;6.41;95.22
47811;BME280;33575;52.600;7.318;2024-03-23T07:56:53;100504.96;;;6.32;94.99
47811;BME280;33575;52.600;7.318;2024-03-23T07:59:23;100506.63;;;6.41;95.03
47811;BME280;33575;52.600;7.318;2024-03-23T08:01:54;100507.02;;;6.38;94.71
47811;BME280;33575;52.600;7.318;2024-03-23T08:04:24;100502.03;;;6.33;94.26
47811;BME280;33575;52.600;7.318;2024-03-23T08:06:55;100505.89;;;6.33;94.78
47811;BME280;33575;52.600;7.318;2024-03-23T08:09:25;100504.08;;;6.43;94.11
47811;BME280;33575;52.600;7.318;2024-03-23T08:11:56;100500.17;;;6.39;94.21
47811;BME280;33575;52.600;7.318;2024-03-23T08:14:27;100504.29;;;6.17;94.78
47811;BME280;33575;52.600;7.318;2024-03-23T08:16:57;100497.44;;;6.38;94.47
47811;BME280;33575;52.600;7.318;2024-03-23T08:19:27;100500.18;;;6.41;94.01
47811;BME280;33575;52.600;7.318;2024-03-23T08:21:58;100497.42;;;6.55;94.39
47811;BME280;33575;52.600;7.318;2024-03-23T08:24:29;100491.03;;;6.55;94.54
47811;BME280;33575;52.600;7.318;2024-03-23T08:27:00;100499.05;;;6.74;94.22
47811;BME280;33575;52.600;7.318;2024-03-23T08:29:30;100494.00;;;6.81;93.83
47811;BME280;33575;52.600;7.318;2024-03-23T08:32:01;100506.00;;;6.79;93.61
47811;BME280;33575;52.600;7.318;2024-03-23T08:34:32;100498.54;;;6.80;92.60
47811;BME280;33575;52.600;7.318;2024-03-23T08:37:02;100507.83;;;6.82;91.93
47811;BME280;33575;52.600;7.318;2024-03-23T08:39:33;100520.67;;;6.85;91.96
47811;BME280;33575;52.600;7.318;2024-03-23T08:42:03;100535.97;;;6.47;93.91
47811;BME280;33575;52.600;7.318;2024-03-23T08:44:34;100531.91;;;6.49;92.75
47811;BME280;33575;52.600;7.318;2024-03-23T08:47:05;100523.50;;;6.29;92.91
47811;BME280;33575;52.600;7.318;2024-03-23T08:49:35;100523.92;;;6.16;93.46
47811;BME280;33575;52.600;7.318;2024-03-23T08:52:06;100520.89;;;6.20;93.08
47811;BME280;33575;52.600;7.318;2024-03-23T08:54:36;100523.21;;;6.21;92.84
47811;BME280;33575;52.600;7.318;2024-03-23T08:57:07;100529.50;;;6.17;92.95
47811;BME280;33575;52.600;7.318;2024-03-23T08:59:38;100525.34;;;6.17;93.08
47811;BME280;33575;52.600;7.318;2024-03-23T09:02:08;100521.81;;;6.12;92.56
47811;BME280;33575;52.600;7.318;2024-03-23T09:04:39;100529.72;;;6.08;93.17
47811;BME280;33575;52.600;7.318;2024-03-23T09:07:09;100521.24;;;6.08;94.28
47811;BME280;33575;52.600;7.318;2024-03-23T09:09:40;100528.49;;;6.12;94.08
47811;BME280;33575;52.600;7.318;2024-03-23T09:12:11;100529.26;;;6.18;93.50
47811;BME280;33575;52.600;7.318;2024-03-23T09:14:41;100536.52;;;6.17;93.85
47811;BME280;33575;52.600;7.318;2024-03-23T09:17:12;100538.54;;;6.22;93.00
47811;BME280;33575;52.600;7.318;2024-03-23T09:19:43;100534.97;;;6.20;93.09
47811;BME280;33575;52.600;7.318;2024-03-23T09:22:13;100541.89;;;6.13;93.86
47811;BME280;33575;52.600;7.318;2024-03-23T09:24:44;100540.73;;;6.16;93.05
47811;BME280;33575;52.600;7.318;2024-03-23T09:27:15;100535.77;;;6.12;92.14
47811;BME280;33575;52.600;7.318;2024-03-23T09:29:46;100522.32;;;6.04;91.05
47811;BME280;33575;52.600;7.318;2024-03-23T09:32:16;100519.14;;;5.94;91.41
47811;BME280;33575;52.600;7.318;2024-03-23T09:34:47;100508.88;;;5.86;91.56
47811;BME280;33575;52.600;7.318;2024-03-23T09:37:17;100506.75;;;5.83;90.93
47811;BME280;33575;52.600;7.318;2024-03-23T09:39:48;100500.54;;;5.78;91.20
47811;BME280;33575;52.600;7.318;2024-03-23T09:42:19;100498.20;;;5.89;90.31
47811;BME280;33575;52.600;7.318;2024-03-23T09:44:51;100495.96;;;5.89;89.81
47811;BME280;33575;52.600;7.318;2024-03-23T09:47:21;100494.42;;;5.82;90.33
47811;BME280;33575;52.600;7.318;2024-03-23T09:49:51;100490.01;;;5.75;90.19
47811;BME280;33575;52.600;7.318;2024-03-23T09:52:22;100488.16;;;5.82;91.05
47811;BME280;33575;52.600;7.318;2024-03-23T09:54:52;100484.23;;;5.99;91.50
47811;BME280;33575;52.600;7.318;2024-03-23T09:57:23;100483.17;;;6.03;91.74
47811;BME280;33575;52.600;7.318;2024-03-23T09:59:53;100472.81;;;6.22;91.52
47811;BME280;33575;52.600;7.318;2024-03-23T10:02:24;100478.19;;;6.31;91.75
47811;BME280;33575;52.600;7.318;2024-03-23T10:04:55;100480.52;;;6.49;92.52
47811;BME280;33575;52.600;7.318;2024-03-23T10:07:25;100485.49;;;6.48;91.13
47811;BME280;33575;52.600;7.318;2024-03-23T10:09:56;100483.63;;;6.65;90.90
47811;BME280;33575;52.600;7.318;2024-03-23T10:12:26;100482.03;;;6.85;91.42
47811;BME280;33575;52.600;7.318;2024-03-23T10:14:57;100485.39;;;6.94;90.90
47811;BME280;33575;52.600;7.318;2024-03-23T10:17:28;100486.43;;;7.14;92.02
47811;BME280;33575;52.600;7.318;2024-03-23T10:19:58;100485.11;;;7.35;88.92
47811;BME280;33575;52.600;7.318;2024-03-23T10:22:29;100485.70;;;7.32;89.03
47811;BME280;33575;52.600;7.318;2024-03-23T10:25:07;100485.59;;;7.40;87.58
47811;BME280;33575;52.600;7.318;2024-03-23T10:27:30;100487.85;;;7.31;87.27
47811;BME280;33575;52.600;7.318;2024-03-23T10:30:08;100480.72;;;7.19;86.23
47811;BME280;33575;52.600;7.318;2024-03-23T10:32:31;100482.68;;;7.28;87.19
47811;BME280;33575;52.600;7.318;2024-03-23T10:37:32;100484.76;;;7.23;87.34
47811;BME280;33575;52.600;7.318;2024-03-23T10:40:04;100484.63;;;7.27;87.62
47811;BME280;33575;52.600;7.318;2024-03-23T10:42:33;100478.66;;;7.40;87.41
47811;BME280;33575;52.600;7.318;2024-03-23T10:45:05;100479.17;;;7.41;87.29
47811;BME280;33575;52.600;7.318;2024-03-23T10:47:35;100479.72;;;7.47;86.81
47811;BME280;33575;52.600;7.318;2024-03-23T10:50:05;100472.83;;;7.57;87.93
47811;BME280;33575;52.600;7.318;2024-03-23T10:52:36;100466.00;;;7.83;90.33
47811;BME280;33575;52.600;7.318;2024-03-23T10:55:07;100468.40;;;7.83;87.60
47811;BME280;33575;52.600;7.318;2024-03-23T10:57:41;100463.59;;;7.81;85.37
47811;BME280;33575;52.600;7.318;2024-03-23T11:00:08;100467.74;;;7.41;86.10
47811;BME280;33575;52.600;7.318;2024-03-23T11:02:38;100455.73;;;7.51;85.73
47811;BME280;33575;52.600;7.318;2024-03-23T11:12:40;100455.43;;;7.53;84.85
47811;BME280;33575;52.600;7.318;2024-03-23T11:15:11;100461.98;;;7.39;84.47
47811;BME280;33575;52.600;7.318;2024-03-23T11:17:41;100469.37;;;7.33;84.69
47811;BME280;33575;52.600;7.318;2024-03-23T11:20:11;100467.96;;;7.43;86.40
47811;BME280;33575;52.600;7.318;2024-03-23T11:22:43;100460.11;;;7.57;85.50
47811;BME280;33575;52.600;7.318;2024-03-23T11:25:15;100459.74;;;7.56;86.03
47811;BME280;33575;52.600;7.318;2024-03-23T11:27:44;100461.70;;;7.63;83.84
47811;BME280;33575;52.600;7.318;2024-03-23T11:30:15;100462.43;;;7.64;83.95
47811;BME280;33575;52.600;7.318;2024-03-23T11:32:45;100459.37;;;7.59;85.17
47811;BME280;33575;52.600;7.318;2024-03-23T11:37:46;100450.72;;;7.33;83.07
47811;BME280;33575;52.600;7.318;2024-03-23T11:40:17;100446.35;;;7.32;83.91
47811;BME280;33575;52.600;7.318;2024-03-23T11:42:47;100448.43;;;7.30;84.36
47811;BME280;33575;52.600;7.318;2024-03-23T11:45:18;100441.86;;;7.44;85.00
47811;BME280;33575;52.600;7.318;2024-03-23T11:47:48;100447.94;;;7.66;86.44
47811;BME280;33575;52.600;7.318;2024-03-23T11:50:20;100437.61;;;7.84;85.64
47811;BME280;33575;52.600;7.318;2024-03-23T11:52:49;100443.12;;;7.99;85.09
47811;BME280;33575;52.600;7.318;2024-03-23T11:55:20;100447.73;;;8.10;84.78
47811;BME280;33575;52.600;7.318;2024-03-23T11:57:50;100433.02;;;8.10;82.68
47811;BME280;33575;52.600;7.318;2024-03-23T12:00:21;100434.36;;;7.85;82.74
47811;BME280;33575;52.600;7.318;2024-03-23T12:02:52;100432.11;;;8.06;81.30
47811;BME280;33575;52.600;7.318;2024-03-23T12:05:22;100423.54;;;8.34;81.03
47811;BME280;33575;52.600;7.318;2024-03-23T12:07:53;100428.25;;;8.54;83.22
47811;BME280;33575;52.600;7.318;2024-03-23T12:10:23;100423.46;;;8.54;80.65
47811;BME280;33575;52.600;7.318;2024-03-23T12:13:00;100421.21;;;8.35;83.28
47811;BME280;33575;52.600;7.318;2024-03-23T12:15:24;100420.46;;;8.06;81.21
47811;BME280;33575;52.600;7.318;2024-03-23T12:20:26;100414.91;;;8.09;82.58
47811;BME280;33575;52.600;7.318;2024-03-23T12:23:05;100417.58;;;7.96;83.51
47811;BME280;33575;52.600;7.318;2024-03-23T12:25:27;100427.70;;;7.77;84.83
47811;BME280;33575;52.600;7.318;2024-03-23T12:27:59;100427.99;;;7.37;81.39
47811;BME280;33575;52.600;7.318;2024-03-23T12:30:28;100426.11;;;6.94;82.10
47811;BME280;33575;52.600;7.318;2024-03-23T12:32:59;100423.91;;;6.56;81.85
47811;BME280;33575;52.600;7.318;2024-03-23T12:35:30;100424.16;;;6.15;84.19
47811;BME280;33575;52.600;7.318;2024-03-23T12:38:00;100426.84;;;6.29;85.06
47811;BME280;33575;52.600;7.318;2024-03-23T12:40:31;100426.56;;;6.39;85.61
47811;BME280;33575;52.600;7.318;2024-03-23T12:43:02;100429.25;;;6.49;86.17
47811;BME280;33575;52.600;7.318;2024-03-23T12:45:32;100430.06;;;6.55;84.91
47811;BME280;33575;52.600;7.318;2024-03-23T12:48:03;100430.13;;;6.50;84.87
47811;BME280;33575;52.600;7.318;2024-03-23T12:50:34;100434.37;;;6.54;85.47
47811;BME280;33575;52.600;7.318;2024-03-23T12:53:05;100433.30;;;6.59;85.79
47811;BME280;33575;52.600;7.318;2024-03-23T12:55:35;100431.22;;;6.42;85.66
47811;BME280;33575;52.600;7.318;2024-03-23T12:58:06;100438.64;;;6.16;87.72
47811;BME280;33575;52.600;7.318;2024-03-23T13:00:37;100439.85;;;6.12;88.06
47811;BME280;33575;52.600;7.318;2024-03-23T13:03:13;100443.15;;;6.05;89.04
47811;BME280;33575;52.600;7.318;2024-03-23T13:05:38;100446.47;;;5.76;91.54
47811;BME280;33575;52.600;7.318;2024-03-23T13:08:09;100459.14;;;5.71;91.79
47811;BME280;33575;52.600;7.318;2024-03-23T13:10:39;100466.84;;;5.49;92.54
47811;BME280;33575;52.600;7.318;2024-03-23T13:13:10;100465.18;;;5.22;93.01
47811;BME280;33575;52.600;7.318;2024-03-23T13:15:41;100461.52;;;5.20;92.56
47811;BME280;33575;52.600;7.318;2024-03-23T13:18:12;100453.75;;;5.14;92.69
47811;BME280;33575;52.600;7.318;2024-03-23T13:20:43;100447.71;;;5.16;93.70
47811;BME280;33575;52.600;7.318;2024-03-23T13:23:13;100436.12;;;5.28;95.96
47811;BME280;33575;52.600;7.318;2024-03-23T13:25:49;100431.60;;;5.35;95.93
47811;BME280;33575;52.600;7.318;2024-03-23T13:28:14;100435.14;;;5.60;94.30
47811;BME280;33575;52.600;7.318;2024-03-23T13:30:50;100434.25;;;5.71;94.17
47811;BME280;33575;52.600;7.318;2024-03-23T13:33:15;100429.95;;;5.87;93.67
47811;BME280;33575;52.600;7.318;2024-03-23T13:35:50;100434.49;;;5.91;94.05
47811;BME280;33575;52.600;7.318;2024-03-23T13:38:19;100428.08;;;5.82;96.74
47811;BME280;33575;52.600;7.318;2024-03-23T13:40:50;100427.29;;;6.08;95.58
47811;BME280;33575;52.600;7.318;2024-03-23T13:43:18;100424.25;;;6.21;96.80
47811;BME280;33575;52.600;7.318;2024-03-23T13:45:52;100422.61;;;6.38;96.08
47811;BME280;33575;52.600;7.318;2024-03-23T13:48:20;100421.84;;;6.55;94.58
47811;BME280;33575;52.600;7.318;2024-03-23T13:50:56;100426.35;;;6.52;94.74
47811;BME280;33575;52.600;7.318;2024-03-23T13:53:21;100429.30;;;6.70;94.51
47811;BME280;33575;52.600;7.318;2024-03-23T13:55:52;100434.30;;;6.58;92.71
47811;BME280;33575;52.600;7.318;2024-03-23T13:58:22;100441.49;;;6.70;90.25
47811;BME280;33575;52.600;7.318;2024-03-23T14:00:53;100456.68;;;6.55;90.80
47811;BME280;33575;52.600;7.318;2024-03-23T14:03:24;100451.28;;;6.04;91.61
47811;BME280;33575;52.600;7.318;2024-03-23T14:05:58;100448.09;;;6.14;92.39
47811;BME280;33575;52.600;7.318;2024-03-23T14:08:25;100444.84;;;6.09;93.43
47811;BME280;33575;52.600;7.318;2024-03-23T14:10:56;100437.55;;;5.96;93.07
47811;BME280;33575;52.600;7.318;2024-03-23T14:13:27;100429.64;;;6.14;92.21
47811;BME280;33575;52.600;7.318;2024-03-23T14:15:57;100424.61;;;6.38;93.10
47811;BME280;33575;52.600;7.318;2024-03-23T14:18:29;100421.45;;;6.52;92.63
47811;BME280;33575;52.600;7.318;2024-03-23T14:21:00;100428.47;;;6.58;91.82
47811;BME280;33575;52.600;7.318;2024-03-23T14:23:31;100414.39;;;6.81;89.27
47811;BME280;33575;52.600;7.318;2024-03-23T14:26:00;100418.52;;;7.00;90.43